Terminal Aerodrome Forecast
Issued by NWS

Home | Current Version | Previous Version | Text Only | Print | Product List | Glossary On
Versions: 1 2 3 4 5 6 7 8 9 10 11 12 13 14 15
380
FTPA31 PHFO 040524
TAFHJR
TAF
PHJR 040524Z 0406/0506 VRB03KT P6SM FEW025 BKN150
     FM042000 24009KT P6SM VCSH SCT025 BKN050
      TEMPO 0422/0502 5SM -SHRA BKN025
     FM050500 20007KT P6SM SCT020 BKN050=

USA.gov is the U.S. government's official web portal to all federal, state and local government web resources and services.